Barney, Iowa
Current Conditions -  °F | °C
As of 12:35 AM on Sunday 21 Dec 2014 (Local Time) from KCSQ Reporting Station
Haze Haze  
Wind Chill: 29°   Ceiling: 500
Heat Index: 37°   Visibility: 3mi
Dew Point: 37°   Wind: 15mph
Humidity: 100%   Direction: 190°S
Pressure: 30.05"   Gusts: 21mph
Location:  41.1135°N, 94.0713°W
Report Text: KCSQ 210635Z AUTO 19013G18KT 3SM BR OVC005 03/03 A3005 RMK AO2
Loading
Personal Weather Stations






























Interactive Weather Map New forecast layout! Learn more

10-Day Weather Forecast

Advertisements
Track Severe Weather on mobile